createdAt,value
2018-04-28T00:00:49.185Z,997.72
2018-04-28T00:01:49.228Z,997.71
2018-04-28T00:02:49.225Z,997.76
2018-04-28T00:03:49.268Z,997.77
2018-04-28T00:04:49.168Z,997.74
2018-04-28T00:05:49.245Z,997.71
2018-04-28T00:06:49.197Z,997.70
2018-04-28T00:07:49.163Z,997.68
2018-04-28T00:08:49.234Z,997.68
2018-04-28T00:09:49.272Z,997.73
2018-04-28T00:10:49.152Z,997.71
2018-04-28T00:11:49.275Z,997.74
2018-04-28T00:12:49.262Z,997.77
2018-04-28T00:13:49.276Z,997.72
2018-04-28T00:14:49.295Z,997.70
2018-04-28T00:15:49.271Z,997.73
2018-04-28T00:16:49.204Z,997.73
2018-04-28T00:17:49.272Z,997.71
2018-04-28T00:18:49.207Z,997.71
2018-04-28T00:19:49.339Z,997.70
2018-04-28T00:20:49.218Z,997.67
2018-04-28T00:21:49.247Z,997.69
2018-04-28T00:22:49.282Z,997.66
2018-04-28T00:23:49.243Z,997.68
2018-04-28T00:24:49.262Z,997.64
2018-04-28T00:25:49.252Z,997.65
2018-04-28T00:26:49.147Z,997.63
2018-04-28T00:27:49.293Z,997.70
2018-04-28T00:28:49.163Z,997.69
2018-04-28T00:29:49.181Z,997.70
2018-04-28T00:30:49.247Z,997.73
2018-04-28T00:31:49.243Z,997.75
2018-04-28T00:32:49.245Z,997.75
2018-04-28T00:33:49.276Z,997.74
2018-04-28T00:34:49.276Z,997.82
2018-04-28T00:35:49.155Z,997.82
2018-04-28T00:36:49.271Z,997.87
2018-04-28T00:37:49.255Z,997.85
2018-04-28T00:38:49.221Z,997.84
2018-04-28T00:39:49.232Z,997.87
2018-04-28T00:40:49.283Z,997.87
2018-04-28T00:41:49.260Z,997.88
2018-04-28T00:42:49.175Z,997.87
2018-04-28T00:43:49.247Z,997.92
2018-04-28T00:44:49.215Z,997.90
2018-04-28T00:45:49.174Z,997.88
2018-04-28T00:46:49.142Z,997.90
2018-04-28T00:47:49.242Z,997.93
2018-04-28T00:48:49.122Z,997.89
2018-04-28T00:49:49.185Z,997.88
2018-04-28T00:50:49.216Z,997.90
2018-04-28T00:51:49.247Z,997.91
2018-04-28T00:52:49.182Z,997.97
2018-04-28T00:53:49.179Z,997.90
2018-04-28T00:54:49.281Z,997.92
2018-04-28T00:55:49.287Z,997.90
2018-04-28T00:56:49.184Z,997.90
2018-04-28T00:57:49.178Z,997.91
2018-04-28T00:58:49.232Z,997.87
2018-04-28T00:59:49.188Z,997.92
2018-04-28T01:00:49.298Z,997.92
2018-04-28T01:01:49.303Z,997.97
2018-04-28T01:02:49.253Z,998.04
2018-04-28T01:03:49.260Z,998.01
2018-04-28T01:04:49.173Z,997.95
2018-04-28T01:05:49.175Z,998.03
2018-04-28T01:06:49.194Z,998.03
2018-04-28T01:07:49.210Z,997.99
2018-04-28T01:08:49.263Z,998.00
2018-04-28T01:09:49.260Z,998.03
2018-04-28T01:10:49.268Z,998.00
2018-04-28T01:11:49.157Z,998.01
2018-04-28T01:12:49.202Z,998.01
2018-04-28T01:13:49.201Z,998.03
2018-04-28T01:14:49.204Z,998.05
2018-04-28T01:15:49.204Z,998.08
2018-04-28T01:16:49.237Z,998.07
2018-04-28T01:17:49.167Z,998.08
2018-04-28T01:18:49.211Z,998.10
2018-04-28T01:19:49.279Z,998.11
2018-04-28T01:20:49.278Z,998.05
2018-04-28T01:21:49.279Z,998.07
2018-04-28T01:22:49.235Z,998.11
2018-04-28T01:23:49.280Z,998.10
2018-04-28T01:24:49.282Z,998.12
2018-04-28T01:25:49.213Z,998.15
2018-04-28T01:26:49.284Z,998.14
2018-04-28T01:27:49.214Z,998.09
2018-04-28T01:28:49.281Z,998.14
2018-04-28T01:29:49.213Z,998.16
2018-04-28T01:30:49.214Z,998.17
2018-04-28T01:31:49.286Z,998.18
2018-04-28T01:32:49.285Z,998.22
2018-04-28T01:33:49.289Z,998.19
2018-04-28T01:34:49.304Z,998.17
2018-04-28T01:35:49.316Z,998.19
2018-04-28T01:36:49.290Z,998.23
2018-04-28T01:37:49.330Z,998.25
2018-04-28T01:38:49.286Z,998.28
2018-04-28T01:39:49.232Z,998.28
2018-04-28T01:40:49.333Z,998.29
2018-04-28T01:41:49.253Z,998.28
2018-04-28T01:42:49.185Z,998.28
2018-04-28T01:43:49.281Z,998.32
2018-04-28T01:44:49.248Z,998.30
2018-04-28T01:45:49.234Z,998.27
2018-04-28T01:46:49.250Z,998.29
2018-04-28T01:47:49.183Z,998.31
2018-04-28T01:48:49.231Z,998.34
2018-04-28T01:49:49.223Z,998.35
2018-04-28T01:50:49.288Z,998.37
2018-04-28T01:51:49.275Z,998.33
2018-04-28T01:52:49.233Z,998.35
2018-04-28T01:53:49.229Z,998.32
2018-04-28T01:54:49.232Z,998.32
2018-04-28T01:55:49.246Z,998.33
2018-04-28T01:56:49.317Z,998.37
2018-04-28T01:57:49.233Z,998.37
2018-04-28T01:58:49.303Z,998.38
2018-04-28T01:59:49.305Z,998.39
2018-04-28T02:00:49.306Z,998.41
2018-04-28T02:01:49.241Z,998.41
2018-04-28T02:02:49.240Z,998.40
2018-04-28T02:03:49.288Z,998.46
2018-04-28T02:04:49.297Z,998.43
2018-04-28T02:05:49.184Z,998.41
2018-04-28T02:06:49.237Z,998.37
2018-04-28T02:07:49.179Z,998.42
2018-04-28T02:08:49.209Z,998.41
2018-04-28T02:09:49.235Z,998.41
2018-04-28T02:10:49.289Z,998.44
2018-04-28T02:11:49.209Z,998.41
2018-04-28T02:12:49.187Z,998.38
2018-04-28T02:13:49.230Z,998.41
2018-04-28T02:14:49.306Z,998.37
2018-04-28T02:15:49.232Z,998.39
2018-04-28T02:16:49.231Z,998.34
2018-04-28T02:17:49.306Z,998.40
2018-04-28T02:18:49.333Z,998.37
2018-04-28T02:19:49.209Z,998.39
2018-04-28T02:20:49.308Z,998.42
2018-04-28T02:21:49.311Z,998.47
2018-04-28T02:22:49.218Z,998.48
2018-04-28T02:23:49.222Z,998.49
2018-04-28T02:24:49.270Z,998.48
2018-04-28T02:25:49.311Z,998.52
2018-04-28T02:26:49.240Z,998.53
2018-04-28T02:27:49.314Z,998.46
2018-04-28T02:28:49.257Z,998.53
2018-04-28T02:29:49.261Z,998.56
2018-04-28T02:30:49.243Z,998.56
2018-04-28T02:31:49.315Z,998.55
2018-04-28T02:32:49.337Z,998.55
2018-04-28T02:33:49.358Z,998.56
2018-04-28T02:34:49.250Z,998.55
2018-04-28T02:35:49.291Z,998.57
2018-04-28T02:36:49.232Z,998.57
2018-04-28T02:37:49.358Z,998.56
2018-04-28T02:38:49.306Z,998.55
2018-04-28T02:39:49.325Z,998.56
2018-04-28T02:40:49.303Z,998.56
2018-04-28T02:41:49.328Z,998.55
2018-04-28T02:42:49.332Z,998.56
2018-04-28T02:43:49.267Z,998.53
2018-04-28T02:44:49.337Z,998.55
2018-04-28T02:45:49.303Z,998.52
2018-04-28T02:46:49.331Z,998.55
2018-04-28T02:47:49.265Z,998.60
2018-04-28T02:48:49.328Z,998.61
2018-04-28T02:49:49.267Z,998.60
2018-04-28T02:50:49.236Z,998.63
2018-04-28T02:51:49.269Z,998.68
2018-04-28T02:52:49.333Z,998.68
2018-04-28T02:53:49.304Z,998.72
2018-04-28T02:54:49.332Z,998.76
2018-04-28T02:55:49.331Z,998.76
2018-04-28T02:56:49.296Z,998.78
2018-04-28T02:57:49.245Z,998.80
2018-04-28T02:58:49.258Z,998.77
2018-04-28T02:59:49.242Z,998.77
2018-04-28T03:00:49.334Z,998.78
2018-04-28T03:01:49.337Z,998.74
2018-04-28T03:02:49.311Z,998.81
2018-04-28T03:03:49.347Z,998.83
2018-04-28T03:04:49.363Z,998.86
2018-04-28T03:05:49.342Z,998.92
2018-04-28T03:06:49.343Z,998.98
2018-04-28T03:07:49.356Z,998.95
2018-04-28T03:08:49.418Z,998.96
2018-04-28T03:09:49.315Z,998.95
2018-04-28T03:10:49.381Z,999.00
2018-04-28T03:11:49.310Z,998.99
2018-04-28T03:12:49.269Z,998.97
2018-04-28T03:13:49.352Z,998.98
2018-04-28T03:14:49.345Z,998.95
2018-04-28T03:15:49.255Z,998.96
2018-04-28T03:16:49.349Z,999.00
2018-04-28T03:17:49.225Z,998.96
2018-04-28T03:18:49.279Z,998.99
2018-04-28T03:19:49.344Z,999.00
2018-04-28T03:20:49.315Z,998.99
2018-04-28T03:21:49.345Z,999.01
2018-04-28T03:22:49.348Z,998.97
2018-04-28T03:23:49.260Z,998.95
2018-04-28T03:24:49.315Z,999.00
2018-04-28T03:25:49.275Z,999.00
2018-04-28T03:26:49.261Z,999.02
2018-04-28T03:27:49.351Z,999.05
2018-04-28T03:28:49.298Z,999.01
2018-04-28T03:29:49.263Z,999.05
2018-04-28T03:30:49.353Z,999.06
2018-04-28T03:31:49.359Z,999.07
2018-04-28T03:32:49.248Z,999.04
2018-04-28T03:33:49.284Z,999.07
2018-04-28T03:34:49.352Z,999.08
2018-04-28T03:35:49.325Z,999.06
2018-04-28T03:36:49.355Z,999.06
2018-04-28T03:37:49.352Z,999.07
2018-04-28T03:38:49.359Z,999.06
2018-04-28T03:39:49.358Z,999.08
2018-04-28T03:40:49.305Z,999.05
2018-04-28T03:41:49.359Z,999.07
2018-04-28T03:42:49.333Z,999.08
2018-04-28T03:43:49.347Z,999.08
2018-04-28T03:44:49.364Z,999.08
2018-04-28T03:45:49.390Z,999.08
2018-04-28T03:46:49.339Z,999.14
2018-04-28T03:47:49.345Z,999.15
2018-04-28T03:48:49.330Z,999.15
2018-04-28T03:49:49.389Z,999.13
2018-04-28T03:50:49.347Z,999.16
2018-04-28T03:51:49.370Z,999.22
2018-04-28T03:52:49.304Z,999.25
2018-04-28T03:53:49.393Z,999.24
2018-04-28T03:54:49.308Z,999.26
2018-04-28T03:55:49.314Z,999.23
2018-04-28T03:56:49.374Z,999.28
2018-04-28T03:57:49.380Z,999.27
2018-04-28T03:58:49.325Z,999.30
2018-04-28T03:59:49.311Z,999.27
2018-04-28T04:00:49.386Z,999.29
2018-04-28T04:01:49.312Z,999.31
2018-04-28T04:02:49.357Z,999.29
2018-04-28T04:03:49.310Z,999.27
2018-04-28T04:04:49.244Z,999.27
2018-04-28T04:05:49.309Z,999.31
2018-04-28T04:06:49.251Z,999.32
2018-04-28T04:07:49.359Z,999.31
2018-04-28T04:08:49.371Z,999.27
2018-04-28T04:09:49.245Z,999.28
2018-04-28T04:10:49.248Z,999.34
2018-04-28T04:11:49.323Z,999.31
2018-04-28T04:12:49.316Z,999.35
2018-04-28T04:13:49.407Z,999.35
2018-04-28T04:14:49.316Z,999.31
2018-04-28T04:15:49.389Z,999.31
2018-04-28T04:16:49.316Z,999.42
2018-04-28T04:17:49.389Z,999.40
2018-04-28T04:18:49.322Z,999.42
2018-04-28T04:19:49.352Z,999.43
2018-04-28T04:20:49.398Z,999.44
2018-04-28T04:21:49.319Z,999.42
2018-04-28T04:22:49.371Z,999.43
2018-04-28T04:23:49.459Z,999.45
2018-04-28T04:24:49.309Z,999.44
2018-04-28T04:25:49.371Z,999.42
2018-04-28T04:26:49.428Z,999.39
2018-04-28T04:27:49.487Z,999.42
2018-04-28T04:28:49.354Z,999.45
2018-04-28T04:29:49.419Z,999.48
2018-04-28T04:30:49.371Z,999.45
2018-04-28T04:31:49.341Z,999.50
2018-04-28T04:32:49.359Z,999.48
2018-04-28T04:33:49.300Z,999.51
2018-04-28T04:34:49.381Z,999.50
2018-04-28T04:35:49.355Z,999.46
2018-04-28T04:36:49.314Z,999.47
2018-04-28T04:37:49.435Z,999.50
2018-04-28T04:38:49.336Z,999.53
2018-04-28T04:39:49.397Z,999.49
2018-04-28T04:40:49.331Z,999.52
2018-04-28T04:41:49.272Z,999.54
2018-04-28T04:42:49.303Z,999.52
2018-04-28T04:43:49.403Z,999.56
2018-04-28T04:44:49.334Z,999.57
2018-04-28T04:45:49.403Z,999.59
2018-04-28T04:46:49.338Z,999.62
2018-04-28T04:47:49.443Z,999.63
2018-04-28T04:48:49.410Z,999.66
2018-04-28T04:49:49.408Z,999.72
2018-04-28T04:50:49.337Z,999.73
2018-04-28T04:51:49.404Z,999.71
2018-04-28T04:52:49.344Z,999.72
2018-04-28T04:53:49.426Z,999.72
2018-04-28T04:54:49.415Z,999.72
2018-04-28T04:55:49.333Z,999.72
2018-04-28T04:56:49.430Z,999.74
2018-04-28T04:57:49.410Z,999.75
2018-04-28T04:58:49.334Z,999.71
2018-04-28T04:59:49.368Z,999.72
2018-04-28T05:00:49.535Z,999.77
2018-04-28T05:01:49.338Z,999.76
2018-04-28T05:02:49.447Z,999.77
2018-04-28T05:03:49.418Z,999.73
2018-04-28T05:04:49.345Z,999.78
2018-04-28T05:05:49.416Z,999.77
2018-04-28T05:06:49.355Z,999.80
2018-04-28T05:07:49.349Z,999.77
2018-04-28T05:08:49.352Z,999.82
2018-04-28T05:09:49.419Z,999.86
2018-04-28T05:10:49.347Z,999.86
2018-04-28T05:11:49.420Z,999.86
2018-04-28T05:12:49.423Z,999.93
2018-04-28T05:13:49.363Z,999.94
2018-04-28T05:14:49.392Z,999.91
2018-04-28T05:15:49.386Z,999.93
2018-04-28T05:16:49.388Z,999.96
2018-04-28T05:17:49.443Z,999.97
2018-04-28T05:18:49.390Z,1000.00
2018-04-28T05:19:49.394Z,1000.03
2018-04-28T05:20:49.394Z,999.98
2018-04-28T05:21:49.344Z,999.97
2018-04-28T05:22:49.453Z,999.99
2018-04-28T05:23:49.377Z,1000.01
2018-04-28T05:24:49.277Z,1000.03
2018-04-28T05:25:49.278Z,999.99
2018-04-28T05:26:49.405Z,1000.06
2018-04-28T05:27:49.285Z,1000.03
2018-04-28T05:28:49.383Z,1000.01
2018-04-28T05:29:49.256Z,999.99
2018-04-28T05:30:49.286Z,1000.04
2018-04-28T05:31:49.287Z,1000.06
2018-04-28T05:32:49.292Z,1000.05
2018-04-28T05:33:49.462Z,1000.08
2018-04-28T05:34:49.435Z,1000.08
2018-04-28T05:35:49.458Z,1000.09
2018-04-28T05:36:49.435Z,1000.09
2018-04-28T05:37:49.406Z,1000.12
2018-04-28T05:38:49.474Z,1000.15
2018-04-28T05:39:49.437Z,1000.14
2018-04-28T05:40:49.407Z,1000.16
2018-04-28T05:41:49.411Z,1000.15
2018-04-28T05:42:49.347Z,1000.20
2018-04-28T05:43:49.443Z,1000.23
2018-04-28T05:44:49.334Z,1000.26
2018-04-28T05:45:49.378Z,1000.25
2018-04-28T05:46:49.444Z,1000.26
2018-04-28T05:47:49.445Z,1000.24
2018-04-28T05:48:49.464Z,1000.25
2018-04-28T05:49:49.377Z,1000.27
2018-04-28T05:50:49.445Z,1000.31
2018-04-28T05:51:49.381Z,1000.29
2018-04-28T05:52:49.449Z,1000.30
2018-04-28T05:53:49.352Z,1000.30
2018-04-28T05:54:49.427Z,1000.32
2018-04-28T05:55:49.470Z,1000.34
2018-04-28T05:56:49.426Z,1000.31
2018-04-28T05:57:49.527Z,1000.28
2018-04-28T05:58:49.443Z,1000.30
2018-04-28T05:59:49.446Z,1000.34
2018-04-28T06:00:49.484Z,1000.38
2018-04-28T06:01:49.424Z,1000.34
2018-04-28T06:02:49.470Z,1000.38
2018-04-28T06:03:49.354Z,1000.39
2018-04-28T06:04:49.346Z,1000.39
2018-04-28T06:05:49.315Z,1000.40
2018-04-28T06:06:49.352Z,1000.42
2018-04-28T06:07:49.410Z,1000.45
2018-04-28T06:08:49.305Z,1000.47
2018-04-28T06:09:49.408Z,1000.52
2018-04-28T06:10:49.316Z,1000.51
2018-04-28T06:11:49.364Z,1000.56
2018-04-28T06:12:49.354Z,1000.60
2018-04-28T06:13:49.365Z,1000.61
2018-04-28T06:14:49.490Z,1000.61
2018-04-28T06:15:49.497Z,1000.68
2018-04-28T06:16:49.463Z,1000.64
2018-04-28T06:17:49.484Z,1000.68
2018-04-28T06:18:49.496Z,1000.67
2018-04-28T06:19:49.387Z,1000.73
2018-04-28T06:20:49.425Z,1000.71
2018-04-28T06:21:49.499Z,1000.76
2018-04-28T06:22:49.363Z,1000.75
2018-04-28T06:23:49.468Z,1000.76
2018-04-28T06:24:49.467Z,1000.74
2018-04-28T06:25:49.489Z,1000.77
2018-04-28T06:26:49.484Z,1000.75
2018-04-28T06:27:49.422Z,1000.74
2018-04-28T06:28:49.469Z,1000.73
2018-04-28T06:29:49.469Z,1000.76
2018-04-28T06:30:49.410Z,1000.77
2018-04-28T06:31:49.466Z,1000.78
2018-04-28T06:32:49.505Z,1000.79
2018-04-28T06:33:49.437Z,1000.82
2018-04-28T06:34:49.373Z,1000.79
2018-04-28T06:35:49.544Z,1000.79
2018-04-28T06:36:49.473Z,1000.76
2018-04-28T06:37:49.447Z,1000.75
2018-04-28T06:38:49.445Z,1000.73
2018-04-28T06:39:49.514Z,1000.77
2018-04-28T06:40:49.478Z,1000.76
2018-04-28T06:41:49.433Z,1000.79
2018-04-28T06:42:49.499Z,1000.74
2018-04-28T06:43:49.466Z,1000.75
2018-04-28T06:44:49.385Z,1000.77
2018-04-28T06:45:49.390Z,1000.78
2018-04-28T06:46:49.468Z,1000.75
2018-04-28T06:47:49.382Z,1000.76
2018-04-28T06:48:49.370Z,1000.77
2018-04-28T06:49:49.468Z,1000.77
2018-04-28T06:50:49.369Z,1000.80
2018-04-28T06:51:49.349Z,1000.76
2018-04-28T06:52:49.478Z,1000.72
2018-04-28T06:53:49.479Z,1000.71
2018-04-28T06:54:49.413Z,1000.70
2018-04-28T06:55:49.484Z,1000.73
2018-04-28T06:56:49.396Z,1000.71
2018-04-28T06:57:49.538Z,1000.76
2018-04-28T06:58:49.370Z,1000.75
2018-04-28T06:59:49.407Z,1000.77
2018-04-28T07:00:49.480Z,1000.74
2018-04-28T07:01:49.452Z,1000.77
2018-04-28T07:02:49.488Z,1000.76
2018-04-28T07:03:49.427Z,1000.74
2018-04-28T07:04:49.427Z,1000.72
2018-04-28T07:05:49.497Z,1000.71
2018-04-28T07:06:49.427Z,1000.70
2018-04-28T07:07:49.497Z,1000.67
2018-04-28T07:08:49.428Z,1000.72
2018-04-28T07:09:49.498Z,1000.73
2018-04-28T07:10:49.473Z,1000.72
2018-04-28T07:11:49.497Z,1000.75
2018-04-28T07:12:49.432Z,1000.76
2018-04-28T07:13:49.495Z,1000.70
2018-04-28T07:14:49.433Z,1000.77
2018-04-28T07:15:49.497Z,1000.74
2018-04-28T07:16:49.432Z,1000.74
2018-04-28T07:17:49.500Z,1000.75
2018-04-28T07:18:49.431Z,1000.75
2018-04-28T07:19:49.531Z,1000.75
2018-04-28T07:20:49.434Z,1000.75
2018-04-28T07:21:49.504Z,1000.76
2018-04-28T07:22:49.439Z,1000.72
2018-04-28T07:23:49.534Z,1000.73
2018-04-28T07:24:49.523Z,1000.71
2018-04-28T07:25:49.540Z,1000.70
2018-04-28T07:26:49.475Z,1000.69
2018-04-28T07:27:49.542Z,1000.67
2018-04-28T07:28:49.465Z,1000.67
2018-04-28T07:29:49.467Z,1000.64
2018-04-28T07:30:49.478Z,1000.67
2018-04-28T07:31:49.483Z,1000.62
2018-04-28T07:32:49.481Z,1000.60
2018-04-28T07:33:49.442Z,1000.56
2018-04-28T07:34:49.413Z,1000.60
2018-04-28T07:35:49.444Z,1000.59
2018-04-28T07:36:49.511Z,1000.60
2018-04-28T07:37:49.449Z,1000.63
2018-04-28T07:40:53.916Z,1000.59
2018-04-28T07:41:49.472Z,1000.60
2018-04-28T07:42:49.551Z,1000.62
2018-04-28T07:43:49.518Z,1000.59
2018-04-28T07:44:49.452Z,1000.58
2018-04-28T07:45:49.522Z,1000.57
2018-04-28T07:46:49.769Z,1000.55
2018-04-28T07:47:49.518Z,1000.56
2018-04-28T07:48:49.452Z,1000.58
2018-04-28T07:49:49.519Z,1000.57
2018-04-28T07:50:49.455Z,1000.56
2018-04-28T07:51:49.524Z,1000.58
2018-04-28T07:52:49.459Z,1000.56
2018-04-28T07:53:49.445Z,1000.56
2018-04-28T07:54:49.488Z,1000.60
2018-04-28T07:55:49.508Z,1000.58
2018-04-28T07:56:49.489Z,1000.58
2018-04-28T07:57:49.548Z,1000.60
2018-04-28T07:58:49.525Z,1000.59
2018-04-28T07:59:49.553Z,1000.60
2018-04-28T08:00:49.526Z,1000.57
2018-04-28T08:01:49.491Z,1000.59
2018-04-28T08:02:49.552Z,1000.62
2018-04-28T08:03:49.566Z,1000.59
2018-04-28T08:04:49.469Z,1000.55
2018-04-28T08:05:49.572Z,1000.60
2018-04-28T08:06:49.574Z,1000.59
2018-04-28T08:07:49.454Z,1000.56
2018-04-28T08:08:49.527Z,1000.61
2018-04-28T08:09:49.499Z,1000.62
2018-04-28T08:10:49.532Z,1000.60
2018-04-28T08:11:49.567Z,1000.60
2018-04-28T08:12:49.510Z,1000.63
2018-04-28T08:13:49.572Z,1000.58
2018-04-28T08:14:49.497Z,1000.57
2018-04-28T08:15:49.509Z,1000.60
2018-04-28T08:16:49.507Z,1000.61
2018-04-28T08:17:49.563Z,1000.63
2018-04-28T08:18:49.506Z,1000.65
2018-04-28T08:19:49.501Z,1000.66
2018-04-28T08:20:49.560Z,1000.67
2018-04-28T08:21:49.576Z,1000.66
2018-04-28T08:22:49.536Z,1000.69
2018-04-28T08:23:49.559Z,1000.71
2018-04-28T08:24:49.546Z,1000.72
2018-04-28T08:25:49.477Z,1000.70
2018-04-28T08:26:49.546Z,1000.77
2018-04-28T08:27:49.546Z,1000.74
2018-04-28T08:28:49.482Z,1000.72
2018-04-28T08:29:49.546Z,1000.72
2018-04-28T08:30:49.546Z,1000.75
2018-04-28T08:31:49.553Z,1000.76
2018-04-28T08:32:49.483Z,1000.75
2018-04-28T08:33:49.585Z,1000.80
2018-04-28T08:34:49.580Z,1000.83
2018-04-28T08:35:49.588Z,1000.78
2018-04-28T08:36:49.626Z,1000.81
2018-04-28T08:37:49.519Z,1000.81
2018-04-28T08:38:49.473Z,1000.81
2018-04-28T08:39:49.485Z,1000.87
2018-04-28T08:40:49.461Z,1000.83
2018-04-28T08:41:49.465Z,1000.81
2018-04-28T08:42:49.568Z,1000.81
2018-04-28T08:43:49.554Z,1000.78
2018-04-28T08:44:49.561Z,1000.77
2018-04-28T08:45:49.497Z,1000.80
2018-04-28T08:46:49.537Z,1000.76
2018-04-28T08:47:49.555Z,1000.75
2018-04-28T08:48:49.458Z,1000.74
2018-04-28T08:49:49.580Z,1000.75
2018-04-28T08:50:49.517Z,1000.75
2018-04-28T08:51:49.518Z,1000.76
2018-04-28T08:52:49.593Z,1000.78
2018-04-28T08:53:49.594Z,1000.81
2018-04-28T08:54:49.483Z,1000.78
2018-04-28T08:55:49.524Z,1000.82
2018-04-28T08:56:49.488Z,1000.80
2018-04-28T08:57:49.534Z,1000.77
2018-04-28T08:58:49.564Z,1000.83
2018-04-28T08:59:49.544Z,1000.82
2018-04-28T09:00:49.486Z,1000.83
2018-04-28T09:01:49.593Z,1000.80
2018-04-28T09:02:49.565Z,1000.81
2018-04-28T09:03:49.600Z,1000.84
2018-04-28T09:04:49.547Z,1000.86
2018-04-28T09:05:49.600Z,1000.85
2018-04-28T09:06:49.639Z,1000.83
2018-04-28T09:07:49.524Z,1000.86
2018-04-28T09:08:49.572Z,1000.84
2018-04-28T09:09:49.526Z,1000.82
2018-04-28T09:10:49.588Z,1000.82
2018-04-28T09:11:49.567Z,1000.79
2018-04-28T09:12:49.532Z,1000.80
2018-04-28T09:13:49.546Z,1000.74
2018-04-28T09:14:49.609Z,1000.73
2018-04-28T09:15:49.598Z,1000.67
2018-04-28T09:16:49.577Z,1000.71
2018-04-28T09:17:49.611Z,1000.67
2018-04-28T09:18:49.608Z,1000.69
2018-04-28T09:19:49.540Z,1000.61
2018-04-28T09:20:49.554Z,1000.60
2018-04-28T09:21:49.485Z,1000.61
2018-04-28T09:22:49.617Z,1000.59
2018-04-28T09:23:49.516Z,1000.65
2018-04-28T09:24:49.514Z,1000.66
2018-04-28T09:25:49.550Z,1000.68
2018-04-28T09:26:49.513Z,1000.72
2018-04-28T09:27:49.516Z,1000.68
2018-04-28T09:28:49.586Z,1000.69
2018-04-28T09:29:49.518Z,1000.72
2018-04-28T09:30:49.584Z,1000.69
2018-04-28T09:31:49.521Z,1000.74
2018-04-28T09:32:49.481Z,1000.74
2018-04-28T09:33:49.522Z,1000.75
2018-04-28T09:34:49.588Z,1000.78
2018-04-28T09:35:49.589Z,1000.74
2018-04-28T09:36:49.523Z,1000.76
2018-04-28T09:37:49.594Z,1000.73
2018-04-28T09:38:49.524Z,1000.76
2018-04-28T09:39:49.523Z,1000.75
2018-04-28T09:40:49.592Z,1000.74
2018-04-28T09:41:49.526Z,1000.73
2018-04-28T09:42:49.538Z,1000.72
2018-04-28T09:43:49.493Z,1000.73
2018-04-28T09:44:49.544Z,1000.74
2018-04-28T09:45:49.493Z,1000.71
2018-04-28T09:46:49.496Z,1000.73
2018-04-28T09:47:49.543Z,1000.74
2018-04-28T09:48:49.544Z,1000.72
2018-04-28T09:49:49.494Z,1000.82
2018-04-28T09:50:49.494Z,1000.78
2018-04-28T09:51:49.505Z,1000.80
2018-04-28T09:52:49.548Z,1000.76
2018-04-28T09:53:49.561Z,1000.77
2018-04-28T09:54:49.531Z,1000.79
2018-04-28T09:55:49.584Z,1000.84
2018-04-28T09:56:49.588Z,1000.81
2018-04-28T09:57:49.556Z,1000.85
2018-04-28T09:58:49.553Z,1000.82
2018-04-28T09:59:49.596Z,1000.79
2018-04-28T10:00:49.597Z,1000.81
2018-04-28T10:01:49.558Z,1000.79
2018-04-28T10:02:49.556Z,1000.78
2018-04-28T10:03:49.542Z,1000.79
2018-04-28T10:04:49.543Z,1000.76
2018-04-28T10:05:49.683Z,1000.79
2018-04-28T10:06:49.611Z,1000.77
2018-04-28T10:07:49.546Z,1000.75
2018-04-28T10:08:49.609Z,1000.74
2018-04-28T10:09:49.608Z,1000.72
2018-04-28T10:10:49.613Z,1000.71
2018-04-28T10:11:49.608Z,1000.72
2018-04-28T10:12:49.642Z,1000.73
2018-04-28T10:13:49.613Z,1000.72
2018-04-28T10:14:49.619Z,1000.76
2018-04-28T10:15:49.550Z,1000.75
2018-04-28T10:16:49.614Z,1000.78
2018-04-28T10:17:49.619Z,1000.81
2018-04-28T10:18:49.551Z,1000.80
2018-04-28T10:19:49.553Z,1000.76
2018-04-28T10:20:49.615Z,1000.81
2018-04-28T10:21:49.619Z,1000.72
2018-04-28T10:22:49.598Z,1000.70
2018-04-28T10:23:49.581Z,1000.70
2018-04-28T10:24:49.596Z,1000.68
2018-04-28T10:25:49.577Z,1000.71
2018-04-28T10:26:49.518Z,1000.67
2018-04-28T10:27:49.621Z,1000.68
2018-04-28T10:28:49.599Z,1000.71
2018-04-28T10:29:49.586Z,1000.69
2018-04-28T10:30:49.658Z,1000.72
2018-04-28T10:31:49.594Z,1000.68
2018-04-28T10:32:49.620Z,1000.67
2018-04-28T10:33:49.699Z,1000.69
2018-04-28T10:34:49.574Z,1000.64
2018-04-28T10:35:49.531Z,1000.62
2018-04-28T10:36:49.529Z,1000.64
2018-04-28T10:37:49.624Z,1000.63
2018-04-28T10:38:49.531Z,1000.63
2018-04-28T10:39:49.532Z,1000.65
2018-04-28T10:40:49.577Z,1000.58
2018-04-28T10:41:49.511Z,1000.68
2018-04-28T10:42:49.622Z,1000.58
2018-04-28T10:43:49.587Z,1000.56
2018-04-28T10:44:49.597Z,1000.54
2018-04-28T10:45:49.663Z,1000.54
2018-04-28T10:46:49.534Z,1000.53
2018-04-28T10:47:49.553Z,1000.52
2018-04-28T10:48:49.661Z,1000.56
2018-04-28T10:49:49.538Z,1000.54
2018-04-28T10:50:49.673Z,1000.54
2018-04-28T10:51:49.659Z,1000.53
2018-04-28T10:52:49.602Z,1000.51
2018-04-28T10:53:49.674Z,1000.50
2018-04-28T10:54:49.733Z,1000.49
2018-04-28T10:55:49.572Z,1000.48
2018-04-28T10:56:49.570Z,1000.50
2018-04-28T10:57:49.575Z,1000.51
2018-04-28T10:58:49.646Z,1000.48
2018-04-28T10:59:49.574Z,1000.49
2018-04-28T11:00:49.664Z,1000.48
2018-04-28T11:01:49.577Z,1000.48
2018-04-28T11:02:49.652Z,1000.50
2018-04-28T11:03:49.582Z,1000.49
2018-04-28T11:04:49.646Z,1000.51
2018-04-28T11:05:49.685Z,1000.46
2018-04-28T11:06:49.611Z,1000.46
2018-04-28T11:07:49.610Z,1000.45
2018-04-28T11:08:49.648Z,1000.42
2018-04-28T11:09:49.674Z,1000.47
2018-04-28T11:10:49.653Z,1000.47
2018-04-28T11:11:49.621Z,1000.43
2018-04-28T11:12:49.623Z,1000.42
2018-04-28T11:13:49.613Z,1000.49
2018-04-28T11:14:49.600Z,1000.44
2018-04-28T11:15:49.585Z,1000.44
2018-04-28T11:16:49.536Z,1000.44
2018-04-28T11:17:49.651Z,1000.39
2018-04-28T11:18:49.534Z,1000.40
2018-04-28T11:19:49.733Z,1000.38
2018-04-28T11:20:49.606Z,1000.41
2018-04-28T11:21:49.538Z,1000.44
2018-04-28T11:22:49.560Z,1000.42
2018-04-28T11:23:49.536Z,1000.47
2018-04-28T11:24:49.591Z,1000.49
2018-04-28T11:25:49.732Z,1000.47
2018-04-28T11:26:49.589Z,1000.47
2018-04-28T11:27:49.588Z,1000.49
2018-04-28T11:28:49.592Z,1000.54
2018-04-28T11:29:49.591Z,1000.48
2018-04-28T11:30:49.662Z,1000.50
2018-04-28T11:31:49.593Z,1000.46
2018-04-28T11:32:49.664Z,1000.48
2018-04-28T11:33:49.595Z,1000.45
2018-04-28T11:34:49.690Z,1000.47
2018-04-28T11:35:49.631Z,1000.49
2018-04-28T11:36:49.625Z,1000.40
2018-04-28T11:37:49.625Z,1000.39
2018-04-28T11:38:49.640Z,1000.41
2018-04-28T11:39:49.634Z,1000.43
2018-04-28T11:40:49.623Z,1000.39
2018-04-28T11:41:49.640Z,1000.39
2018-04-28T11:42:49.575Z,1000.37
2018-04-28T11:43:49.693Z,1000.39
2018-04-28T11:44:49.526Z,1000.42
2018-04-28T11:45:49.565Z,1000.39
2018-04-28T11:46:49.663Z,1000.44
2018-04-28T11:47:49.662Z,1000.44
2018-04-28T11:48:49.575Z,1000.53
2018-04-28T11:49:49.607Z,1000.47
2018-04-28T11:50:49.659Z,1000.50
2018-04-28T11:51:49.632Z,1000.47
2018-04-28T11:52:49.708Z,1000.40
2018-04-28T11:53:49.650Z,1000.39
2018-04-28T11:54:49.680Z,1000.39
2018-04-28T11:55:49.613Z,1000.37
2018-04-28T11:56:49.680Z,1000.41
2018-04-28T11:57:49.677Z,1000.39
2018-04-28T11:58:49.707Z,1000.41
2018-04-28T11:59:49.679Z,1000.42
2018-04-28T12:00:49.666Z,1000.32
2018-04-28T12:01:49.617Z,1000.33
2018-04-28T12:02:49.609Z,1000.30
2018-04-28T12:03:49.702Z,1000.29
2018-04-28T12:04:49.711Z,1000.34
2018-04-28T12:05:49.620Z,1000.35
2018-04-28T12:06:49.655Z,1000.43
2018-04-28T12:07:49.589Z,1000.40
2018-04-28T12:08:49.729Z,1000.45
2018-04-28T12:09:49.655Z,1000.44
2018-04-28T12:10:49.728Z,1000.41
2018-04-28T12:11:49.593Z,1000.33
2018-04-28T12:12:49.648Z,1000.37
2018-04-28T12:13:49.708Z,1000.38
2018-04-28T12:14:49.687Z,1000.28
2018-04-28T12:15:49.693Z,1000.32
2018-04-28T12:16:49.621Z,1000.33
2018-04-28T12:17:49.691Z,1000.32